Time;durP1;ratioP1;P1;durP2;ratioP2;P2;SDS_P1;SDS_P2;PMS_P1;PMS_P2;Temp;Humidity;BMP_temperature;BMP_pressure;BME280_temperature;BME280_humidity;BME280_pressure;Samples;Min_cycle;Max_cycle;Signal;HPM_P1;HPM_P2
2022/06/18 00:00:45;;;;;;;18.40;8.98;;;13.70;99.90;;;;;;5034995;28;20422;-51
2022/06/18 00:03:11;;;;;;;13.25;8.38;;;13.80;99.90;;;;;;5034730;28;20045;-52
2022/06/18 00:05:39;;;;;;;16.42;8.88;;;13.70;99.90;;;;;;5034899;28;20037;-51
2022/06/18 00:08:11;;;;;;;12.13;7.50;;;13.70;99.90;;;;;;5034759;28;20030;-52
2022/06/18 00:10:36;;;;;;;18.15;8.35;;;13.70;99.90;;;;;;5034914;28;20037;-52
2022/06/18 00:13:41;;;;;;;16.08;9.05;;;13.60;99.90;;;;;;5034956;28;20036;-52
2022/06/18 00:16:11;;;;;;;16.90;8.73;;;13.50;99.90;;;;;;5035163;28;20461;-51
2022/06/18 00:18:37;;;;;;;13.98;8.77;;;13.60;99.90;;;;;;5034749;28;20033;-51
2022/06/18 00:21:05;;;;;;;15.38;9.52;;;13.50;99.90;;;;;;5034844;28;20037;-51
2022/06/18 00:23:31;;;;;;;16.50;9.63;;;13.40;99.90;;;;;;5034504;28;20445;-51
2022/06/18 00:25:57;;;;;;;13.25;8.55;;;13.30;99.90;;;;;;5034827;28;20044;-51
2022/06/18 00:28:28;;;;;;;15.60;9.52;;;13.20;99.90;;;;;;5035309;28;20030;-51
2022/06/18 00:30:54;;;;;;;13.65;7.88;;;13.20;99.90;;;;;;5034720;28;20029;-51
2022/06/18 00:33:21;;;;;;;16.53;9.93;;;13.30;99.90;;;;;;5030341;28;20017;-51
2022/06/18 00:35:49;;;;;;;13.60;8.95;;;13.20;99.90;;;;;;5031935;28;20046;-51
2022/06/18 00:38:26;;;;;;;13.65;8.35;;;13.20;99.90;;;;;;5031596;28;20032;-51
2022/06/18 00:40:52;;;;;;;18.35;9.20;;;13.20;99.90;;;;;;5030075;28;20177;-51
2022/06/18 00:43:45;;;;;;;12.53;8.07;;;13.30;99.90;;;;;;5031456;28;20030;-51
2022/06/18 00:46:33;;;;;;;12.82;8.32;;;13.20;99.90;;;;;;5031293;28;20049;-52
2022/06/18 00:49:22;;;;;;;18.20;9.20;;;13.30;99.90;;;;;;5031374;28;20025;-51
2022/06/18 00:51:57;;;;;;;15.07;8.98;;;13.30;99.90;;;;;;5031268;28;20048;-51
2022/06/18 00:54:27;;;;;;;16.92;8.57;;;13.30;99.90;;;;;;5031265;28;20088;-50
2022/06/18 00:56:56;;;;;;;18.50;8.82;;;13.30;99.90;;;;;;5030088;28;20137;-51
2022/06/18 00:59:37;;;;;;;16.13;8.63;;;13.20;99.90;;;;;;5031037;28;20567;-51
2022/06/18 01:02:03;;;;;;;14.02;7.93;;;13.20;99.90;;;;;;5031079;28;20029;-52
2022/06/18 01:04:34;;;;;;;19.13;9.40;;;13.10;99.90;;;;;;5030970;28;20026;-51
2022/06/18 01:07:32;;;;;;;14.27;7.95;;;13.20;99.90;;;;;;5031023;28;20555;-50
2022/06/18 01:09:59;;;;;;;16.08;8.60;;;13.10;99.90;;;;;;5031223;28;20045;-52
2022/06/18 01:12:25;;;;;;;16.00;8.02;;;13.00;99.90;;;;;;5030866;28;20139;-51
2022/06/18 01:15:00;;;;;;;13.30;8.40;;;12.90;99.90;;;;;;5030720;28;20029;-51
2022/06/18 01:17:26;;;;;;;13.73;8.68;;;13.00;99.90;;;;;;5030867;28;20038;-51
2022/06/18 01:19:52;;;;;;;18.10;8.43;;;13.00;99.90;;;;;;5030762;28;20046;-52
2022/06/18 01:22:42;;;;;;;14.23;8.73;;;13.00;99.90;;;;;;5030571;28;20036;-50
2022/06/18 01:25:09;;;;;;;20.90;7.93;;;13.00;99.90;;;;;;5030541;28;20527;-51
2022/06/18 01:27:36;;;;;;;18.17;7.82;;;13.00;99.90;;;;;;5030814;28;20435;-51
2022/06/18 01:30:09;;;;;;;16.30;7.63;;;13.00;99.90;;;;;;5023565;28;20033;-51
2022/06/18 01:32:36;;;;;;;15.18;8.50;;;13.00;99.90;;;;;;5030221;28;20075;-50
2022/06/18 01:35:03;;;;;;;15.60;7.63;;;13.10;99.90;;;;;;5030466;28;20030;-52
2022/06/18 01:37:29;;;;;;;14.20;8.23;;;13.10;99.90;;;;;;5029993;28;20622;-51
2022/06/18 01:39:55;;;;;;;12.90;7.65;;;13.00;99.90;;;;;;5030161;28;20041;-51
2022/06/18 01:42:29;;;;;;;13.63;7.75;;;13.00;99.90;;;;;;5030266;28;20022;-52
2022/06/18 01:45:17;;;;;;;12.93;7.22;;;12.90;99.90;;;;;;5029060;28;20400;-51
2022/06/18 01:47:57;;;;;;;14.75;8.23;;;12.90;99.90;;;;;;5029666;28;20033;-51
2022/06/18 01:50:47;;;;;;;13.50;8.35;;;12.90;99.90;;;;;;5029994;28;20037;-52
2022/06/18 01:53:19;;;;;;;12.45;7.57;;;12.90;99.90;;;;;;5029936;28;20049;-52
2022/06/18 01:55:50;;;;;;;14.93;7.20;;;12.80;99.90;;;;;;5029970;28;20025;-52
2022/06/18 01:58:25;;;;;;;16.83;7.93;;;12.80;99.90;;;;;;5028592;28;20025;-51
2022/06/18 02:00:56;;;;;;;14.93;7.90;;;12.80;99.90;;;;;;5029556;28;20112;-51
2022/06/18 02:03:22;;;;;;;16.20;7.47;;;12.70;99.90;;;;;;5029942;28;20391;-49
2022/06/18 02:05:48;;;;;;;15.85;7.38;;;12.70;99.90;;;;;;5029791;28;20029;-50
2022/06/18 02:08:17;;;;;;;12.90;7.72;;;12.70;99.90;;;;;;5029777;28;20376;-51
2022/06/18 02:11:00;;;;;;;12.85;7.45;;;12.60;99.90;;;;;;5029716;28;20621;-50
2022/06/18 02:13:31;;;;;;;12.60;7.50;;;12.60;99.90;;;;;;5029731;28;20539;-50
2022/06/18 02:15:59;;;;;;;14.55;7.68;;;12.60;99.90;;;;;;5029565;28;20033;-50
2022/06/18 02:18:27;;;;;;;12.80;7.68;;;12.50;99.90;;;;;;5029479;28;20484;-50
2022/06/18 02:20:56;;;;;;;15.82;8.48;;;12.60;99.90;;;;;;5029286;28;20455;-50
2022/06/18 02:23:23;;;;;;;12.70;8.65;;;12.50;99.90;;;;;;5029273;28;20100;-50
2022/06/18 02:25:49;;;;;;;12.35;7.57;;;12.50;99.90;;;;;;5028977;28;20025;-50
2022/06/18 02:28:27;;;;;;;12.57;8.30;;;12.50;99.90;;;;;;5029394;28;20047;-51
2022/06/18 02:30:58;;;;;;;15.85;8.82;;;12.40;99.90;;;;;;5029304;28;20361;-50
2022/06/18 02:33:28;;;;;;;15.68;8.05;;;12.40;99.90;;;;;;5029451;28;20075;-50
2022/06/18 02:35:55;;;;;;;18.08;8.88;;;12.40;99.90;;;;;;5029209;28;20032;-50
2022/06/18 02:38:22;;;;;;;15.02;9.02;;;12.40;99.90;;;;;;5029010;28;20128;-51
2022/06/18 02:40:48;;;;;;;16.20;9.18;;;12.40;99.90;;;;;;5021524;28;20430;-50
2022/06/18 02:43:17;;;;;;;14.15;7.90;;;12.40;99.90;;;;;;5028972;28;20022;-51
2022/06/18 02:45:45;;;;;;;16.38;7.82;;;12.30;99.90;;;;;;5028989;28;20022;-51
2022/06/18 02:48:11;;;;;;;11.82;6.90;;;12.30;99.90;;;;;;5028800;28;20100;-50
2022/06/18 02:50:40;;;;;;;10.15;6.45;;;12.40;99.90;;;;;;5028991;28;20041;-50
2022/06/18 02:53:09;;;;;;;13.32;7.00;;;12.50;99.90;;;;;;5029182;28;20100;-51
2022/06/18 02:55:35;;;;;;;17.73;7.07;;;12.50;99.90;;;;;;5028454;28;20018;-51
2022/06/18 02:58:17;;;;;;;15.23;6.80;;;12.50;99.90;;;;;;5028652;28;20469;-51
2022/06/18 03:00:46;;;;;;;10.38;6.70;;;12.50;99.90;;;;;;5028707;28;20103;-50
2022/06/18 03:03:14;;;;;;;13.63;7.32;;;12.40;99.90;;;;;;5028892;28;20540;-52
2022/06/18 03:05:40;;;;;;;9.38;6.70;;;12.40;99.90;;;;;;5028462;28;20592;-51
2022/06/18 03:08:07;;;;;;;13.35;7.50;;;12.40;99.90;;;;;;5028420;28;20647;-51
2022/06/18 03:13:18;;;;;;;12.27;8.15;;;12.30;99.90;;;;;;5028551;28;20039;-51
2022/06/18 03:15:48;;;;;;;11.70;7.18;;;12.30;99.90;;;;;;5028498;28;20117;-51
2022/06/18 03:18:15;;;;;;;18.50;9.38;;;12.20;99.90;;;;;;5028621;28;20055;-52
2022/06/18 03:21:04;;;;;;;11.40;7.93;;;12.30;99.90;;;;;;5028517;28;20037;-51
2022/06/18 03:23:30;;;;;;;17.88;8.75;;;12.40;99.90;;;;;;5028325;28;20550;-52
2022/06/18 03:25:56;;;;;;;14.52;7.43;;;12.50;99.90;;;;;;5028504;28;20469;-51
2022/06/18 03:28:24;;;;;;;13.82;8.05;;;12.50;99.90;;;;;;5028371;28;20049;-52
2022/06/18 03:30:50;;;;;;;12.45;8.05;;;12.50;99.90;;;;;;5028239;28;20021;-51
2022/06/18 03:33:15;;;;;;;10.77;7.72;;;12.50;99.90;;;;;;5028563;28;20031;-52
2022/06/18 03:35:44;;;;;;;15.00;7.78;;;12.40;99.90;;;;;;5028788;28;20553;-51
2022/06/18 03:38:11;;;;;;;19.30;10.10;;;12.50;99.90;;;;;;5028455;28;20029;-50
2022/06/18 03:40:37;;;;;;;18.33;10.52;;;12.60;99.90;;;;;;5026809;28;20037;-51
2022/06/18 03:43:03;;;;;;;15.43;9.60;;;12.80;99.90;;;;;;5014069;28;20480;-52
2022/06/18 03:45:34;;;;;;;16.58;9.25;;;12.90;99.90;;;;;;5008403;28;20033;-51
2022/06/18 03:48:00;;;;;;;20.90;9.20;;;13.00;99.90;;;;;;5009431;28;20037;-51
2022/06/18 03:50:26;;;;;;;17.95;9.55;;;13.10;99.90;;;;;;5008925;28;20030;-52
2022/06/18 03:52:52;;;;;;;14.65;8.73;;;13.10;99.90;;;;;;5008453;28;20508;-50
2022/06/18 03:55:18;;;;;;;11.98;7.05;;;13.10;99.90;;;;;;5008393;28;20066;-50
2022/06/18 03:57:43;;;;;;;14.20;8.43;;;13.10;99.90;;;;;;5007960;28;20030;-51
2022/06/18 04:00:16;;;;;;;18.42;9.57;;;13.10;99.90;;;;;;5008450;28;20088;-51
2022/06/18 04:02:42;;;;;;;17.10;8.00;;;13.10;99.90;;;;;;5008484;28;20690;-50
2022/06/18 04:05:08;;;;;;;12.95;8.55;;;13.20;99.90;;;;;;5027102;28;20034;-50
2022/06/18 04:07:34;;;;;;;13.55;8.18;;;13.30;99.90;;;;;;5028724;28;20034;-50
2022/06/18 04:10:01;;;;;;;17.48;9.02;;;13.40;99.90;;;;;;5027863;28;20072;-50
2022/06/18 04:12:29;;;;;;;16.07;9.10;;;13.50;99.90;;;;;;5045401;28;20028;-49
2022/06/18 04:14:54;;;;;;;30.42;10.88;;;13.60;99.90;;;;;;5043849;28;20048;-51
2022/06/18 04:17:20;;;;;;;22.85;10.43;;;13.60;99.90;;;;;;5031878;28;20056;-50
2022/06/18 04:19:46;;;;;;;22.10;11.40;;;13.80;99.90;;;;;;5032005;28;20060;-52
2022/06/18 04:22:12;;;;;;;26.40;11.50;;;14.00;99.90;;;;;;5031534;28;20084;-51
2022/06/18 04:24:37;;;;;;;21.45;11.50;;;14.00;99.90;;;;;;5032012;28;20591;-50
2022/06/18 04:27:04;;;;;;;20.92;10.48;;;14.10;99.90;;;;;;5031982;28;20508;-52
2022/06/18 04:29:31;;;;;;;21.23;10.70;;;14.20;99.90;;;;;;5031832;28;20029;-51
2022/06/18 04:31:57;;;;;;;24.05;9.93;;;14.20;99.90;;;;;;5031574;28;20436;-51
2022/06/18 04:34:23;;;;;;;19.52;9.35;;;14.30;99.90;;;;;;5031664;28;20060;-52
2022/06/18 04:36:48;;;;;;;18.88;9.85;;;14.40;99.90;;;;;;5031511;28;20018;-52
2022/06/18 04:39:14;;;;;;;19.52;9.57;;;14.40;99.90;;;;;;5029679;28;20037;-50
2022/06/18 04:41:40;;;;;;;17.23;8.50;;;14.50;99.90;;;;;;5031420;28;20026;-51
2022/06/18 04:44:06;;;;;;;23.38;10.02;;;14.60;99.90;;;;;;5031479;28;20702;-51
2022/06/18 04:46:32;;;;;;;17.15;9.32;;;14.70;99.90;;;;;;5031358;28;20025;-49
2022/06/18 04:48:58;;;;;;;24.40;10.37;;;14.80;99.90;;;;;;5031117;28;20082;-51
2022/06/18 04:51:24;;;;;;;18.05;9.82;;;14.90;99.90;;;;;;5031264;28;20476;-50
2022/06/18 04:53:50;;;;;;;22.83;9.80;;;15.00;99.90;;;;;;5031016;28;20029;-50
2022/06/18 04:56:16;;;;;;;20.00;10.07;;;15.10;99.90;;;;;;5031050;28;20030;-49
2022/06/18 04:58:42;;;;;;;19.67;11.38;;;15.10;99.90;;;;;;5030210;28;20033;-51
2022/06/18 05:01:07;;;;;;;18.27;10.15;;;15.20;99.90;;;;;;5029699;28;20137;-51
2022/06/18 05:03:34;;;;;;;19.48;8.93;;;15.30;99.90;;;;;;5030874;28;20500;-51
2022/06/18 05:05:59;;;;;;;15.85;9.23;;;15.40;99.90;;;;;;5030972;28;20052;-50
2022/06/18 05:08:26;;;;;;;9.73;5.78;;;15.50;99.90;;;;;;5030503;28;20477;-51
2022/06/18 05:10:52;;;;;;;10.95;5.68;;;15.80;99.90;;;;;;5030666;28;20073;-52
2022/06/18 05:13:18;;;;;;;13.30;6.15;;;15.90;99.90;;;;;;5030804;28;20037;-49
2022/06/18 05:15:45;;;;;;;10.90;5.43;;;16.10;99.90;;;;;;5030740;28;20119;-51
2022/06/18 05:18:15;;;;;;;9.07;5.15;;;16.20;99.90;;;;;;5030216;28;20077;-51
2022/06/18 05:20:41;;;;;;;14.30;5.35;;;16.40;99.90;;;;;;5030538;28;20156;-51
2022/06/18 05:23:10;;;;;;;10.38;4.88;;;16.40;99.90;;;;;;5030515;28;20140;-51
2022/06/18 05:25:35;;;;;;;9.55;5.13;;;16.50;99.90;;;;;;5030459;28;20506;-51
2022/06/18 05:28:01;;;;;;;8.55;5.03;;;16.70;99.90;;;;;;5030704;28;20057;-50
2022/06/18 05:30:28;;;;;;;10.25;5.47;;;16.70;99.90;;;;;;5030793;28;20139;-51
2022/06/18 05:32:53;;;;;;;8.70;5.00;;;16.90;99.90;;;;;;5030825;28;20028;-51
2022/06/18 05:35:19;;;;;;;11.13;4.32;;;16.90;99.90;;;;;;5030649;28;20037;-51
2022/06/18 05:37:46;;;;;;;8.50;4.35;;;17.00;99.90;;;;;;5030371;28;20464;-51
2022/06/18 05:40:13;;;;;;;9.25;4.60;;;17.10;99.90;;;;;;5030390;28;20172;-51
2022/06/18 05:42:39;;;;;;;16.77;4.97;;;17.20;99.90;;;;;;5030437;28;20021;-51
2022/06/18 05:45:06;;;;;;;8.20;4.03;;;17.40;99.90;;;;;;5030240;28;20030;-50
2022/06/18 05:47:32;;;;;;;6.60;3.75;;;17.40;99.90;;;;;;5030136;28;20040;-51
2022/06/18 05:49:59;;;;;;;6.82;3.92;;;17.50;99.90;;;;;;5030010;28;20061;-51
2022/06/18 05:52:27;;;;;;;8.82;4.25;;;17.50;99.90;;;;;;5030116;28;20102;-51
2022/06/18 05:54:52;;;;;;;10.73;4.57;;;17.70;99.90;;;;;;5030213;28;20128;-50
2022/06/18 05:57:19;;;;;;;9.77;4.30;;;17.80;99.90;;;;;;5029881;28;20115;-52
2022/06/18 05:59:46;;;;;;;10.40;4.43;;;17.90;99.90;;;;;;5029996;28;20112;-52
2022/06/18 06:02:13;;;;;;;10.25;4.40;;;18.00;99.90;;;;;;5029782;28;20148;-52
2022/06/18 06:04:39;;;;;;;7.95;3.97;;;18.10;99.90;;;;;;5029930;28;20464;-52
2022/06/18 06:07:16;;;;;;;8.40;4.15;;;18.10;99.90;;;;;;5029584;28;20034;-52
2022/06/18 06:12:26;;;;;;;8.70;4.10;;;18.30;99.90;;;;;;5028750;28;20036;-51
2022/06/18 06:14:52;;;;;;;8.88;3.58;;;18.40;99.90;;;;;;5029750;28;20659;-51
2022/06/18 06:17:23;;;;;;;7.90;3.42;;;18.60;99.90;;;;;;5028283;28;20037;-52
2022/06/18 06:19:49;;;;;;;12.10;3.60;;;18.70;99.90;;;;;;5029676;28;20064;-52
2022/06/18 06:22:15;;;;;;;12.15;4.97;;;18.70;99.90;;;;;;5029494;28;20033;-53
2022/06/18 06:24:41;;;;;;;9.07;3.90;;;18.80;99.90;;;;;;5029375;28;20409;-52
2022/06/18 06:27:08;;;;;;;9.40;3.45;;;18.80;99.90;;;;;;5029307;28;20392;-52
2022/06/18 06:29:34;;;;;;;9.90;3.47;;;19.00;99.90;;;;;;5029368;28;20052;-52
2022/06/18 06:32:00;;;;;;;10.60;3.92;;;19.20;99.90;;;;;;5028636;28;20630;-52
2022/06/18 06:34:26;;;;;;;10.93;4.18;;;19.20;99.90;;;;;;5029313;28;20239;-51
2022/06/18 06:36:51;;;;;;;9.98;4.53;;;19.40;99.90;;;;;;5029376;28;20049;-52
2022/06/18 06:39:18;;;;;;;9.10;3.53;;;19.40;99.90;;;;;;5029299;28;20124;-51
2022/06/18 06:41:44;;;;;;;10.00;4.00;;;19.30;99.90;;;;;;5028959;28;20022;-51
2022/06/18 06:44:10;;;;;;;9.77;4.22;;;19.40;99.90;;;;;;5029308;28;20060;-53
2022/06/18 06:46:36;;;;;;;11.23;3.65;;;19.40;99.90;;;;;;5029232;28;20675;-51
2022/06/18 06:49:02;;;;;;;10.85;4.32;;;19.50;99.90;;;;;;5029105;28;20505;-53
2022/06/18 06:51:30;;;;;;;11.70;4.88;;;19.50;99.90;;;;;;5029222;28;20616;-53
2022/06/18 06:53:56;;;;;;;9.80;3.53;;;19.60;99.90;;;;;;5029148;28;20099;-51
2022/06/18 06:59:08;;;;;;;8.70;4.20;;;19.70;99.90;;;;;;5028971;28;20067;-52
2022/06/18 07:01:34;;;;;;;7.85;3.92;;;19.90;99.90;;;;;;5028825;28;20384;-51
2022/06/18 07:04:01;;;;;;;14.05;3.90;;;20.00;99.90;;;;;;5029055;28;20052;-52
2022/06/18 07:06:27;;;;;;;8.13;3.28;;;20.00;99.90;;;;;;5028651;28;20200;-52
2022/06/18 07:08:53;;;;;;;10.25;3.40;;;20.00;99.90;;;;;;5028671;28;20036;-52
2022/06/18 07:11:19;;;;;;;10.23;3.80;;;20.10;99.90;;;;;;5028756;28;20485;-51
2022/06/18 07:13:44;;;;;;;9.68;3.83;;;20.20;99.90;;;;;;5028869;28;20041;-53
2022/06/18 07:16:12;;;;;;;12.77;4.25;;;20.30;99.90;;;;;;5028820;28;20045;-52
2022/06/18 07:18:39;;;;;;;7.95;3.65;;;20.40;99.90;;;;;;5028797;28;20127;-52
2022/06/18 07:21:07;;;;;;;9.73;3.47;;;20.50;99.90;;;;;;5028884;28;20076;-52
2022/06/18 07:23:33;;;;;;;6.07;3.05;;;20.50;99.90;;;;;;5028388;28;20056;-52
2022/06/18 07:25:59;;;;;;;9.77;3.65;;;20.50;99.90;;;;;;5028825;28;20116;-51
2022/06/18 07:28:25;;;;;;;12.80;3.50;;;20.60;99.90;;;;;;5028718;28;20136;-51
2022/06/18 07:30:51;;;;;;;7.93;3.50;;;20.60;99.90;;;;;;5028456;28;20021;-51
2022/06/18 07:33:23;;;;;;;9.25;4.45;;;20.70;99.90;;;;;;5026048;28;20037;-51
2022/06/18 07:35:50;;;;;;;13.05;3.80;;;20.80;99.90;;;;;;5028934;28;20029;-52
2022/06/18 07:38:16;;;;;;;7.63;3.10;;;20.90;99.90;;;;;;5028461;28;20076;-53
2022/06/18 07:40:47;;;;;;;7.57;3.80;;;20.90;99.90;;;;;;5028679;28;20310;-53
2022/06/18 07:43:35;;;;;;;6.10;2.95;;;20.90;99.90;;;;;;5031971;28;20030;-52
2022/06/18 07:46:03;;;;;;;8.55;3.13;;;20.90;99.90;;;;;;5022686;28;20497;-51
2022/06/18 07:48:30;;;;;;;6.90;2.92;;;21.00;99.90;;;;;;5023817;28;20330;-51
2022/06/18 07:50:55;;;;;;;5.57;2.78;;;21.10;99.70;;;;;;5020162;28;20030;-52
2022/06/18 07:53:23;;;;;;;6.70;3.00;;;21.10;99.90;;;;;;5030036;28;20045;-52
2022/06/18 07:55:49;;;;;;;9.77;3.08;;;21.20;99.90;;;;;;5028070;28;20622;-50
2022/06/18 07:58:15;;;;;;;6.60;2.70;;;21.30;99.90;;;;;;5016906;28;20099;-52
2022/06/18 08:00:42;;;;;;;7.32;2.85;;;21.30;99.90;;;;;;5017132;28;20042;-53
2022/06/18 08:03:11;;;;;;;6.03;2.63;;;21.50;99.90;;;;;;5016119;28;20029;-52
2022/06/18 08:05:37;;;;;;;5.82;2.72;;;21.50;99.90;;;;;;5014603;28;20033;-51
2022/06/18 08:08:03;;;;;;;7.40;2.43;;;21.60;99.20;;;;;;5017942;28;20021;-52
2022/06/18 08:10:30;;;;;;;6.50;2.27;;;21.60;99.30;;;;;;5020444;28;20487;-52
2022/06/18 08:12:56;;;;;;;3.95;2.08;;;21.60;97.10;;;;;;5021575;28;20019;-51
2022/06/18 08:15:21;;;;;;;5.13;2.40;;;21.80;97.70;;;;;;5022588;28;20029;-52
2022/06/18 08:17:47;;;;;;;6.55;2.38;;;21.80;95.40;;;;;;5020228;28;20108;-52
2022/06/18 08:20:13;;;;;;;6.45;1.60;;;21.90;94.30;;;;;;5022007;28;20033;-51
2022/06/18 08:22:44;;;;;;;5.90;2.28;;;21.90;94.00;;;;;;5021879;28;20029;-52
2022/06/18 08:25:11;;;;;;;6.25;2.60;;;21.90;95.00;;;;;;5019912;28;20048;-52
2022/06/18 08:27:38;;;;;;;3.90;1.77;;;22.00;92.80;;;;;;5021987;28;20507;-52
2022/06/18 08:30:04;;;;;;;;;;;22.10;93.90;;;;;;5021310;28;20030;-52
2022/06/18 08:32:31;;;;;;;4.50;1.73;;;22.30;95.00;;;;;;5021443;28;19961;-52
2022/06/18 08:34:56;;;;;;;2.30;1.23;;;22.20;93.20;;;;;;5019628;28;20052;-52
2022/06/18 08:37:23;;;;;;;2.55;1.38;;;22.40;92.20;;;;;;5021051;28;20111;-52
2022/06/18 08:39:49;;;;;;;6.37;1.67;;;22.40;93.00;;;;;;5021040;28;20778;-51
2022/06/18 08:42:39;;;;;;;3.10;1.40;;;22.50;88.10;;;;;;5019384;28;20030;-52
2022/06/18 08:45:11;;;;;;;2.53;1.25;;;22.60;91.50;;;;;;5020338;28;20026;-52
2022/06/18 08:48:03;;;;;;;3.15;1.45;;;22.70;90.30;;;;;;5019312;28;20022;-51
2022/06/18 08:50:35;;;;;;;2.42;1.52;;;22.50;88.70;;;;;;5020915;28;20029;-52
2022/06/18 08:53:31;;;;;;;3.10;1.50;;;22.50;88.10;;;;;;5019577;28;20045;-52
2022/06/18 08:56:15;;;;;;;3.67;1.45;;;22.60;85.40;;;;;;5021590;28;20310;-51
2022/06/18 08:58:53;;;;;;;2.33;1.50;;;22.80;85.80;;;;;;5003420;28;20039;-51
2022/06/18 09:01:27;;;;;;;3.55;1.33;;;22.90;84.20;;;;;;5019332;28;20485;-51
2022/06/18 09:04:18;;;;;;;3.53;1.40;;;22.90;86.60;;;;;;5019181;28;20453;-52
2022/06/18 09:07:08;;;;;;;3.13;1.38;;;23.00;87.90;;;;;;5020119;28;20025;-53
2022/06/18 09:10:06;;;;;;;3.28;1.20;;;23.20;82.90;;;;;;5010986;28;20034;-52
2022/06/18 09:12:37;;;;;;;3.05;1.63;;;23.10;87.50;;;;;;5011141;28;20018;-52
2022/06/18 09:15:06;;;;;;;3.47;1.50;;;23.20;86.50;;;;;;5017952;28;20137;-52
2022/06/18 09:17:49;;;;;;;3.05;1.20;;;23.30;84.20;;;;;;5019000;28;20076;-52
2022/06/18 09:20:22;;;;;;;5.75;1.50;;;23.40;80.90;;;;;;5019121;28;20061;-52
2022/06/18 09:22:52;;;;;;;2.72;1.65;;;23.30;81.10;;;;;;5024089;28;20048;-52
2022/06/18 09:25:22;;;;;;;4.15;1.63;;;23.10;80.60;;;;;;5030759;28;20029;-53
2022/06/18 09:28:11;;;;;;;4.40;1.17;;;23.30;84.70;;;;;;5030391;28;20186;-51
2022/06/18 09:30:44;;;;;;;3.80;1.85;;;23.20;81.90;;;;;;5030077;28;20037;-52
2022/06/18 09:33:12;;;;;;;3.05;1.50;;;23.20;84.80;;;;;;5030817;28;20029;-52
2022/06/18 09:35:44;;;;;;;4.50;2.08;;;23.40;85.20;;;;;;5030446;28;20567;-52
2022/06/18 09:38:29;;;;;;;2.22;1.55;;;23.40;86.60;;;;;;5022527;28;20029;-52
2022/06/18 09:40:58;;;;;;;6.28;2.25;;;23.50;90.00;;;;;;5019909;28;20029;-52
2022/06/18 09:43:52;;;;;;;3.95;1.50;;;23.70;87.60;;;;;;5018727;28;20126;-53
2022/06/18 09:46:31;;;;;;;3.22;1.35;;;23.70;82.30;;;;;;5020471;28;20040;-52
2022/06/18 09:48:57;;;;;;;5.13;1.20;;;23.70;78.20;;;;;;5020381;28;20377;-51
2022/06/18 09:51:36;;;;;;;2.15;1.08;;;23.70;82.00;;;;;;5018327;28;20026;-52
2022/06/18 09:54:07;;;;;;;2.63;1.38;;;23.70;81.10;;;;;;5018434;28;20029;-52
2022/06/18 09:56:43;;;;;;;2.95;1.33;;;23.50;78.90;;;;;;5019417;28;20479;-52
2022/06/18 09:59:17;;;;;;;2.85;1.40;;;23.70;83.50;;;;;;5018853;28;20049;-51
2022/06/18 10:01:46;;;;;;;7.78;1.45;;;23.60;81.00;;;;;;5019437;28;20026;-51
2022/06/18 10:07:14;;;;;;;4.45;1.40;;;24.00;79.90;;;;;;5017899;28;20033;-52
2022/06/18 10:09:47;;;;;;;3.17;1.20;;;24.10;83.20;;;;;;4999578;28;20088;-50
2022/06/18 10:12:37;;;;;;;2.05;0.90;;;24.00;78.30;;;;;;5016486;28;20022;-51
2022/06/18 10:15:11;;;;;;;3.58;1.52;;;24.10;81.50;;;;;;5019086;28;20116;-51
2022/06/18 10:17:46;;;;;;;2.13;1.13;;;24.40;78.40;;;;;;5025133;28;20029;-50
2022/06/18 10:20:50;;;;;;;3.47;1.40;;;24.30;78.80;;;;;;5028205;28;20033;-50
2022/06/18 10:23:19;;;;;;;3.63;1.20;;;24.00;72.90;;;;;;5028524;28;20057;-51
2022/06/18 10:26:15;;;;;;;5.20;1.15;;;24.10;75.60;;;;;;5028680;28;20041;-51
2022/06/18 10:28:59;;;;;;;2.47;0.80;;;24.10;76.80;;;;;;4974695;28;20050;-51
2022/06/18 10:31:47;;;;;;;4.00;1.20;;;24.00;73.60;;;;;;5019586;28;20060;-51
2022/06/18 10:34:16;;;;;;;3.50;1.70;;;24.40;75.30;;;;;;4996609;28;20545;-51
2022/06/18 10:37:12;;;;;;;3.25;1.58;;;24.50;79.60;;;;;;5022678;28;20838;-51
2022/06/18 10:40:07;;;;;;;6.70;1.58;;;24.20;78.10;;;;;;5025544;28;20127;-52
2022/06/18 10:42:59;;;;;;;5.05;1.70;;;24.50;78.90;;;;;;5000940;28;20133;-51
2022/06/18 10:45:49;;;;;;;10.60;1.95;;;24.50;79.30;;;;;;4984418;28;20034;-50
2022/06/18 10:48:23;;;;;;;2.15;1.27;;;24.80;78.20;;;;;;5018964;28;20025;-52
2022/06/18 10:50:52;;;;;;;6.55;1.73;;;24.80;77.20;;;;;;4995349;28;20361;-51
2022/06/18 10:53:23;;;;;;;4.20;1.65;;;24.80;79.00;;;;;;5018648;28;20429;-52
2022/06/18 10:56:13;;;;;;;3.83;1.40;;;24.90;75.70;;;;;;5016314;28;20496;-51
2022/06/18 10:58:52;;;;;;;3.15;1.40;;;25.00;73.00;;;;;;5005572;28;20034;-50
2022/06/18 11:01:39;;;;;;;2.83;1.38;;;24.90;75.20;;;;;;5007012;28;20034;-51
2022/06/18 11:04:28;;;;;;;6.43;1.40;;;24.80;73.50;;;;;;5007536;28;20519;-50
2022/06/18 11:07:00;;;;;;;2.08;1.45;;;24.70;77.70;;;;;;5011097;28;20477;-50
2022/06/18 11:09:29;;;;;;;2.53;1.25;;;24.70;77.00;;;;;;5015093;28;20105;-50
2022/06/18 11:12:02;;;;;;;1.27;1.00;;;24.80;75.50;;;;;;5017959;28;20101;-50
2022/06/18 11:14:32;;;;;;;4.57;1.23;;;24.80;70.80;;;;;;5014994;28;20541;-50
2022/06/18 11:16:58;;;;;;;2.80;1.23;;;24.90;74.00;;;;;;5017203;28;20128;-50
2022/06/18 11:19:31;;;;;;;5.07;1.27;;;25.00;74.50;;;;;;5014220;28;20037;-50
2022/06/18 11:22:18;;;;;;;2.25;1.17;;;25.00;73.50;;;;;;5017727;28;20034;-50
2022/06/18 11:24:51;;;;;;;4.67;1.40;;;25.20;75.60;;;;;;5014732;28;20080;-49
2022/06/18 11:27:18;;;;;;;2.95;1.55;;;25.20;72.30;;;;;;5017154;28;20025;-50
2022/06/18 11:29:53;;;;;;;3.55;1.30;;;25.10;73.70;;;;;;5017137;28;20022;-51
2022/06/18 11:32:27;;;;;;;3.17;1.48;;;25.20;73.60;;;;;;5016885;28;20033;-50
2022/06/18 11:35:09;;;;;;;2.17;1.20;;;25.30;75.20;;;;;;5016491;28;20030;-51
2022/06/18 11:37:35;;;;;;;2.40;1.20;;;25.40;74.60;;;;;;5015955;28;20026;-50
2022/06/18 11:40:11;;;;;;;1.83;1.20;;;25.40;71.20;;;;;;5017803;28;20067;-52
2022/06/18 11:42:56;;;;;;;3.00;1.42;;;25.30;73.50;;;;;;5016863;28;20095;-51
2022/06/18 11:46:06;;;;;;;2.60;1.30;;;25.40;71.00;;;;;;5017479;28;20022;-50
2022/06/18 11:48:54;;;;;;;2.03;1.25;;;25.70;70.90;;;;;;4997424;28;20037;-50
2022/06/18 11:51:41;;;;;;;5.68;1.38;;;25.40;70.40;;;;;;5000741;28;20025;-52
2022/06/18 11:54:24;;;;;;;12.20;2.35;;;25.20;68.30;;;;;;4999925;28;20062;-50
2022/06/18 11:56:57;;;;;;;3.67;1.27;;;25.70;73.40;;;;;;5018151;28;20073;-50
2022/06/18 11:59:46;;;;;;;1.60;1.05;;;25.70;70.90;;;;;;5017062;28;20497;-51
2022/06/18 12:02:33;;;;;;;3.67;1.83;;;25.80;69.70;;;;;;5015071;28;20032;-52
2022/06/18 12:05:09;;;;;;;2.72;1.25;;;26.00;69.90;;;;;;5016141;28;20091;-51
2022/06/18 12:07:51;;;;;;;2.80;1.10;;;25.90;69.60;;;;;;5014389;28;20480;-52
2022/06/18 12:10:23;;;;;;;2.78;1.33;;;26.20;70.60;;;;;;5016458;28;20072;-52
2022/06/18 12:13:10;;;;;;;2.53;1.20;;;25.80;67.10;;;;;;4996758;28;20544;-51
2022/06/18 12:15:37;;;;;;;5.22;1.50;;;26.00;67.50;;;;;;5016387;28;20022;-51
2022/06/18 12:18:11;;;;;;;3.08;1.30;;;26.00;66.00;;;;;;5016378;28;20029;-50
2022/06/18 12:20:55;;;;;;;2.58;1.20;;;26.50;67.60;;;;;;5016082;28;20044;-51
2022/06/18 12:23:27;;;;;;;4.10;1.27;;;26.30;64.80;;;;;;5015900;28;20152;-51
2022/06/18 12:26:15;;;;;;;4.07;1.10;;;26.20;67.90;;;;;;5016093;28;20025;-52
2022/06/18 12:29:11;;;;;;;2.40;1.25;;;26.40;66.30;;;;;;5016447;28;20469;-52
2022/06/18 12:31:51;;;;;;;2.78;1.60;;;26.40;67.50;;;;;;5014394;28;20034;-51
2022/06/18 12:34:37;;;;;;;3.88;1.77;;;26.40;69.80;;;;;;5014296;28;20020;-52
2022/06/18 12:37:17;;;;;;;2.13;1.33;;;26.40;66.60;;;;;;5016995;28;20225;-51
2022/06/18 12:39:56;;;;;;;3.72;1.30;;;26.60;67.50;;;;;;5016110;28;20084;-51
2022/06/18 12:42:34;;;;;;;3.78;1.63;;;26.40;65.90;;;;;;5010635;28;20057;-50
2022/06/18 12:45:32;;;;;;;6.57;1.25;;;26.40;65.50;;;;;;4991596;28;20702;-51
2022/06/18 12:48:12;;;;;;;2.88;1.00;;;26.40;67.90;;;;;;5009008;28;20144;-51
2022/06/18 12:50:52;;;;;;;3.53;1.25;;;26.60;65.60;;;;;;5013052;28;20045;-50
2022/06/18 12:53:40;;;;;;;2.15;1.15;;;26.40;65.20;;;;;;5023607;28;20034;-50
2022/06/18 12:56:19;;;;;;;5.43;0.98;;;26.90;67.10;;;;;;5025518;28;20100;-51
2022/06/18 12:59:03;;;;;;;4.32;1.50;;;26.70;66.90;;;;;;5025786;28;20033;-51
2022/06/18 13:01:58;;;;;;;2.15;1.00;;;26.90;68.50;;;;;;5026015;28;20033;-51
2022/06/18 13:04:33;;;;;;;4.63;1.27;;;26.80;64.20;;;;;;5005210;28;20070;-51
2022/06/18 13:07:04;;;;;;;5.53;1.35;;;27.00;65.80;;;;;;5016347;28;20509;-50
2022/06/18 13:10:07;;;;;;;3.38;1.00;;;27.20;66.70;;;;;;5017868;28;20135;-51
2022/06/18 13:13:26;;;;;;;3.63;1.25;;;27.30;64.90;;;;;;5030319;28;20021;-51
2022/06/18 13:16:09;;;;;;;1.98;1.17;;;27.20;68.10;;;;;;4987598;28;20037;-51
2022/06/18 13:18:49;;;;;;;3.05;1.00;;;26.90;65.30;;;;;;5030632;28;20488;-50
2022/06/18 13:21:15;;;;;;;3.35;1.23;;;27.10;64.30;;;;;;5030484;28;20068;-50